Time;durP1;ratioP1;P1;durP2;ratioP2;P2;SDS_P1;SDS_P2;PMS_P1;PMS_P2;Temp;Humidity;BMP_temperature;BMP_pressure;BME280_temperature;BME280_humidity;BME280_pressure;Samples;Min_cycle;Max_cycle;Signal;HPM_P1;HPM_P2
2023/06/08 00:01:30;;;;;;;6.6;5.4;;;;;;;15.32;71.3877;936.6666;;;;
2023/06/08 00:03:58;;;;;;;7.8;5.4;;;;;;;15.33;70.23633;936.6215;;;;
2023/06/08 00:06:23;;;;;;;7.3;5.2;;;;;;;15.33;70.08301;936.5709;;;;
2023/06/08 00:08:50;;;;;;;6.3;5.2;;;;;;;15.22;70.45996;936.646;;;;
2023/06/08 00:11:15;;;;;;;6.3;4.9;;;;;;;15.17;70.56641;936.6342;;;;
2023/06/08 00:13:40;;;;;;;5.9;5;;;;;;;15.11;70.97168;936.6317;;;;
2023/06/08 00:16:06;;;;;;;6.4;4.9;;;;;;;15.03;70.95996;936.5452;;;;
2023/06/08 00:18:32;;;;;;;6;4.7;;;;;;;15.02;71.1875;936.5894;;;;
2023/06/08 00:20:58;;;;;;;7.2;5.2;;;;;;;14.99;71.14844;936.5341;;;;
2023/06/08 00:23:22;;;;;;;7.6;4.6;;;;;;;14.98;71.1123;936.45;;;;
2023/06/08 00:25:50;;;;;;;5.9;5;;;;;;;14.99;71.95703;936.5436;;;;
2023/06/08 00:28:16;;;;;;;7;5.2;;;;;;;15.07;71.66895;936.4902;;;;
2023/06/08 00:30:43;;;;;;;7.5;5;;;;;;;14.95;71.44141;936.4655;;;;
2023/06/08 00:33:08;;;;;;;6.1;5.4;;;;;;;14.92;71.37988;936.4634;;;;
2023/06/08 00:35:35;;;;;;;8.1;5.6;;;;;;;14.98;72.55566;936.4178;;;;
2023/06/08 00:38:00;;;;;;;6.4;5;;;;;;;15;71.38184;936.408;;;;
2023/06/08 00:40:26;;;;;;;8;5.4;;;;;;;14.94;71.47559;936.3886;;;;
2023/06/08 00:42:51;;;;;;;9;5.6;;;;;;;14.91;71.59766;936.368;;;;
2023/06/08 00:45:19;;;;;;;8;5.3;;;;;;;14.84;71.94336;936.2758;;;;
2023/06/08 00:47:44;;;;;;;8.1;4.9;;;;;;;14.76;72.3916;936.3315;;;;
2023/06/08 00:50:12;;;;;;;9.4;5.3;;;;;;;14.72;72.61426;936.3064;;;;
2023/06/08 00:52:37;;;;;;;6.8;5.5;;;;;;;14.7;73.31445;936.3161;;;;
2023/06/08 00:55:02;;;;;;;6.6;5.4;;;;;;;14.47;73.15039;936.3156;;;;
2023/06/08 00:57:28;;;;;;;8.1;5.8;;;;;;;14.49;73.17578;936.3234;;;;
2023/06/08 00:59:52;;;;;;;6.1;5.5;;;;;;;14.49;73.84473;936.3281;;;;
2023/06/08 01:02:18;;;;;;;7.3;5.2;;;;;;;14.53;73.9668;936.3823;;;;
2023/06/08 01:04:42;;;;;;;8.1;5.5;;;;;;;14.57;73.79004;936.3739;;;;
2023/06/08 01:07:14;;;;;;;6.7;5.5;;;;;;;14.62;73.60059;936.3458;;;;
2023/06/08 01:09:35;;;;;;;6.7;4.8;;;;;;;14.61;73.40332;936.372;;;;
2023/06/08 01:12:05;;;;;;;6;5.1;;;;;;;14.62;72.78418;936.3842;;;;
2023/06/08 01:14:29;;;;;;;7.3;5.2;;;;;;;14.6;72.8252;936.2816;;;;
2023/06/08 01:16:54;;;;;;;6.6;5.1;;;;;;;14.61;73.20898;936.3607;;;;
2023/06/08 01:19:23;;;;;;;5.9;5;;;;;;;14.58;73.06445;936.3218;;;;
2023/06/08 01:21:45;;;;;;;6.2;5.4;;;;;;;14.37;74.1582;936.2789;;;;
2023/06/08 01:24:12;;;;;;;7.9;5.6;;;;;;;14.24;74.74609;936.2313;;;;
2023/06/08 01:26:35;;;;;;;10.8;5.6;;;;;;;14.22;74.92676;936.2394;;;;
2023/06/08 01:29:02;;;;;;;7.2;5.2;;;;;;;14.35;74.45508;936.2142;;;;
2023/06/08 01:31:28;;;;;;;7.3;5.2;;;;;;;14.39;73.45898;936.1522;;;;
2023/06/08 01:33:53;;;;;;;5.8;5.1;;;;;;;14.36;73.39648;936.1948;;;;
2023/06/08 01:36:20;;;;;;;8.3;5.2;;;;;;;14.24;73.6416;936.1623;;;;
2023/06/08 01:38:45;;;;;;;5.5;4.6;;;;;;;14.22;74.17871;936.204;;;;
2023/06/08 01:41:10;;;;;;;6.1;4.9;;;;;;;14.28;74.59277;936.2004;;;;
2023/06/08 01:43:35;;;;;;;7.5;5.5;;;;;;;14.26;75.00195;936.1845;;;;
2023/06/08 01:46:00;;;;;;;5.7;4.5;;;;;;;14.23;74.21484;936.2137;;;;
2023/06/08 01:48:26;;;;;;;6.3;5.1;;;;;;;14.09;74.67383;936.1816;;;;
2023/06/08 01:50:51;;;;;;;6;5.1;;;;;;;14.03;74.94043;936.1412;;;;
2023/06/08 01:53:19;;;;;;;8.2;5.3;;;;;;;13.91;75.8291;936.1249;;;;
2023/06/08 01:55:44;;;;;;;7.2;5;;;;;;;13.95;76.18066;936.1495;;;;
2023/06/08 01:58:11;;;;;;;6.7;5;;;;;;;14.02;75.79102;936.1013;;;;
2023/06/08 02:00:36;;;;;;;6.4;5.3;;;;;;;13.94;75.66113;936.0991;;;;
2023/06/08 02:03:10;;;;;;;5.9;5.2;;;;;;;13.94;76.03125;936.1103;;;;
2023/06/08 02:08:44;;;;;;;7.3;5.2;;;;;;;13.8;75.89063;936.0237;;;;
2023/06/08 02:11:10;;;;;;;6.4;5.3;;;;;;;13.73;76.28125;936.017;;;;
2023/06/08 02:13:39;;;;;;;5.7;5;;;;;;;13.77;75.88477;935.9719;;;;
2023/06/08 02:16:08;;;;;;;5.6;5;;;;;;;13.68;76.07715;936.0389;;;;
2023/06/08 02:18:34;;;;;;;6.4;5;;;;;;;13.73;75.84375;936.0986;;;;
2023/06/08 02:21:02;;;;;;;6;5.2;;;;;;;13.54;76.76465;936.1163;;;;
2023/06/08 02:23:26;;;;;;;7.8;5.1;;;;;;;13.42;77.51465;936.1217;;;;
2023/06/08 02:25:51;;;;;;;5.9;4.7;;;;;;;13.34;77.5791;936.1465;;;;
2023/06/08 02:28:16;;;;;;;6.9;5;;;;;;;13.45;77.4043;936.1462;;;;
2023/06/08 02:30:45;;;;;;;5.8;5;;;;;;;13.57;77.05762;936.2065;;;;
2023/06/08 02:33:15;;;;;;;7.4;5.5;;;;;;;13.71;77.05957;936.1764;;;;
2023/06/08 02:35:40;;;;;;;6.3;5.1;;;;;;;13.63;76.96387;936.2137;;;;
2023/06/08 02:38:07;;;;;;;6.6;5.4;;;;;;;13.61;76.69727;936.199;;;;
2023/06/08 02:40:32;;;;;;;7;5.4;;;;;;;13.55;77.10059;936.2017;;;;
2023/06/08 02:42:57;;;;;;;6;5.2;;;;;;;13.69;77.22949;936.182;;;;
2023/06/08 02:45:24;;;;;;;6.7;5.1;;;;;;;13.72;76.39453;936.1707;;;;
2023/06/08 02:47:49;;;;;;;7.3;5.3;;;;;;;13.69;76.45898;936.1948;;;;
2023/06/08 02:50:17;;;;;;;7.5;5.5;;;;;;;13.72;76.44043;936.1555;;;;
2023/06/08 02:52:49;;;;;;;7.9;5;;;;;;;13.67;76.44238;936.1638;;;;
2023/06/08 02:55:19;;;;;;;8;5.5;;;;;;;13.6;76.92578;936.2726;;;;
2023/06/08 02:57:48;;;;;;;5.5;4.8;;;;;;;13.59;76.98047;936.1495;;;;
2023/06/08 03:00:10;;;;;;;14;5.4;;;;;;;13.51;77.37012;936.206;;;;
2023/06/08 03:02:37;;;;;;;6.3;5;;;;;;;13.45;77.76074;936.1903;;;;
2023/06/08 03:05:03;;;;;;;5.5;5;;;;;;;13.49;77.85938;936.171;;;;
2023/06/08 03:07:33;;;;;;;6.3;5.4;;;;;;;13.55;77.52539;936.1154;;;;
2023/06/08 03:10:01;;;;;;;6.2;4.9;;;;;;;13.54;77.00684;936.0986;;;;
2023/06/08 03:12:26;;;;;;;6.9;5;;;;;;;13.38;77.65723;936.192;;;;
2023/06/08 03:14:53;;;;;;;6.2;4.7;;;;;;;13.32;77.65723;936.1546;;;;
2023/06/08 03:17:19;;;;;;;7.5;5.8;;;;;;;13.34;78.5459;936.157;;;;
2023/06/08 03:19:47;;;;;;;5.6;4.6;;;;;;;13.44;77.72461;936.1408;;;;
2023/06/08 03:22:12;;;;;;;8.1;5.7;;;;;;;13.39;77.70313;936.0535;;;;
2023/06/08 03:24:37;;;;;;;8;5.8;;;;;;;13.41;77.7998;936.1429;;;;
2023/06/08 03:27:02;;;;;;;6.4;5.4;;;;;;;13.44;77.4834;936.108;;;;
2023/06/08 03:29:30;;;;;;;9.2;5.5;;;;;;;13.39;77.53125;936.1454;;;;
2023/06/08 03:31:55;;;;;;;7.6;4.9;;;;;;;13.37;77.78027;936.1177;;;;
2023/06/08 03:34:20;;;;;;;8.7;5.5;;;;;;;13.32;78.09473;936.1291;;;;
2023/06/08 03:36:45;;;;;;;6.3;5;;;;;;;13.36;77.85938;936.1128;;;;
2023/06/08 03:39:13;;;;;;;8.1;5.5;;;;;;;13.38;78.26465;936.0704;;;;
2023/06/08 03:41:37;;;;;;;7.6;5.5;;;;;;;13.28;78.375;936.0676;;;;
2023/06/08 03:44:06;;;;;;;7.2;5.2;;;;;;;13.27;78.19922;936.1692;;;;
2023/06/08 03:46:35;;;;;;;5.8;5.2;;;;;;;13.26;78.27832;936.1476;;;;
2023/06/08 03:49:03;;;;;;;6;5.4;;;;;;;13.22;78.75293;936.1016;;;;
2023/06/08 03:51:28;;;;;;;6.6;5.4;;;;;;;13.2;78.60059;936.1165;;;;
2023/06/08 03:53:56;;;;;;;6.5;4.8;;;;;;;13.09;78.86914;936.0719;;;;
2023/06/08 03:56:21;;;;;;;7.1;5.2;;;;;;;13.12;79.17285;936.1533;;;;
2023/06/08 03:58:51;;;;;;;5.9;5.2;;;;;;;13.15;78.78711;936.1836;;;;
2023/06/08 04:02:34;;;;;;;6.7;6;;;;;;;13.24;78.5166;936.183;;;;
2023/06/08 04:05:06;;;;;;;7.7;6.2;;;;;;;13.2;78.69336;936.0933;;;;
2023/06/08 04:07:32;;;;;;;6.2;5.6;;;;;;;13.02;79.54395;936.1616;;;;
2023/06/08 04:09:55;;;;;;;7.4;5.8;;;;;;;13.01;79.89746;936.0983;;;;
2023/06/08 04:12:22;;;;;;;7;5.4;;;;;;;13.08;79.77344;936.1454;;;;
2023/06/08 04:14:48;;;;;;;7;5.3;;;;;;;13.19;79.50781;936.1845;;;;
2023/06/08 04:17:15;;;;;;;7.6;5.5;;;;;;;13.3;79.11426;936.1843;;;;
2023/06/08 04:19:38;;;;;;;6.8;5.8;;;;;;;13.42;78.69629;936.2273;;;;
2023/06/08 04:22:08;;;;;;;6.9;5.5;;;;;;;13.42;78.59473;936.1833;;;;
2023/06/08 04:24:32;;;;;;;6.9;5.5;;;;;;;13.38;78.63281;936.1351;;;;
2023/06/08 04:26:58;;;;;;;6.9;5.1;;;;;;;13.38;78.94336;936.1168;;;;
2023/06/08 04:29:23;;;;;;;6.8;5.2;;;;;;;13.34;78.94629;936.1825;;;;
2023/06/08 04:31:51;;;;;;;6.3;5.2;;;;;;;13.26;79.07129;936.1741;;;;
2023/06/08 04:34:16;;;;;;;7.7;5.5;;;;;;;13.22;79.47656;936.1895;;;;
2023/06/08 04:36:46;;;;;;;10.7;5.7;;;;;;;13.39;79.33594;936.2598;;;;
2023/06/08 04:39:10;;;;;;;8.1;5.8;;;;;;;13.25;79.56348;936.2366;;;;
2023/06/08 04:41:38;;;;;;;7.4;5.5;;;;;;;13.31;79.33398;936.2586;;;;
2023/06/08 04:44:03;;;;;;;7.9;5.3;;;;;;;13.25;79.72461;936.2549;;;;
2023/06/08 04:46:33;;;;;;;7.1;5.7;;;;;;;13.32;79.77051;936.2178;;;;
2023/06/08 04:48:57;;;;;;;6.9;5.7;;;;;;;13.48;79.21387;936.2366;;;;
2023/06/08 04:51:23;;;;;;;7.3;5.5;;;;;;;13.52;79.58887;936.2203;;;;
2023/06/08 04:53:47;;;;;;;7;5.6;;;;;;;13.44;79.02344;936.2319;;;;
2023/06/08 04:56:18;;;;;;;7.8;5.7;;;;;;;13.46;79.1875;936.2111;;;;
2023/06/08 04:58:41;;;;;;;7.5;6.2;;;;;;;13.57;79.23047;936.2745;;;;
2023/06/08 05:01:11;;;;;;;8.6;6;;;;;;;13.68;79.1582;936.2581;;;;
2023/06/08 05:03:39;;;;;;;7.6;5.3;;;;;;;14.3;76.70313;936.1946;;;;
2023/06/08 05:06:04;;;;;;;7.3;5.6;;;;;;;15.23;72.57324;936.1381;;;;
2023/06/08 05:08:35;;;;;;;6.6;5.2;;;;;;;16.28;67.95703;936.1429;;;;
2023/06/08 05:11:05;;;;;;;6.3;4.6;;;;;;;17.17;64.67578;936.2156;;;;
2023/06/08 05:13:31;;;;;;;5.6;4.4;;;;;;;17.8;62.15723;936.1532;;;;
2023/06/08 05:15:59;;;;;;;7.7;4.5;;;;;;;17.71;62.2373;936.1713;;;;
2023/06/08 05:18:27;;;;;;;5;4.3;;;;;;;18.22;59.98633;936.118;;;;
2023/06/08 05:20:52;;;;;;;5.5;4.2;;;;;;;18.57;59.05566;936.0971;;;;
2023/06/08 05:23:21;;;;;;;6;4;;;;;;;18.98;57.96973;936.0222;;;;
2023/06/08 05:26:16;;;;;;;6.5;4.3;;;;;;;19.24;55.8623;935.9899;;;;
2023/06/08 05:28:41;;;;;;;6.1;4;;;;;;;19.15;56.50293;935.966;;;;
2023/06/08 05:31:10;;;;;;;5.7;3.7;;;;;;;19.93;55.40039;935.9233;;;;
2023/06/08 05:33:36;;;;;;;5.2;3.9;;;;;;;19.52;54.62598;935.9581;;;;
2023/06/08 05:36:03;;;;;;;5.7;4.4;;;;;;;20.64;52.47559;935.9824;;;;
2023/06/08 05:38:28;;;;;;;5.3;3.9;;;;;;;20.17;53.35254;935.9138;;;;
2023/06/08 05:40:56;;;;;;;4.9;3.9;;;;;;;20.92;52.35547;935.9144;;;;
2023/06/08 05:43:21;;;;;;;5.5;4;;;;;;;22.38;48.22363;935.9041;;;;
2023/06/08 05:45:48;;;;;;;4.7;4;;;;;;;22.86;47.45313;935.8307;;;;
2023/06/08 05:48:14;;;;;;;4.5;3.6;;;;;;;23.52;47.35938;935.872;;;;
2023/06/08 05:50:42;;;;;;;4.6;3.6;;;;;;;23.11;46.08105;935.8399;;;;
2023/06/08 05:53:07;;;;;;;3.8;3.4;;;;;;;23.22;47.35059;935.8519;;;;
2023/06/08 05:55:33;;;;;;;4.2;3.6;;;;;;;22.37;46.6748;935.8045;;;;
2023/06/08 05:57:58;;;;;;;5.5;3.7;;;;;;;22.65;46.76172;935.8207;;;;
2023/06/08 06:00:27;;;;;;;5.8;3.8;;;;;;;23.1;45.39844;935.7745;;;;
2023/06/08 06:02:56;;;;;;;4.1;3.7;;;;;;;22.67;47.33789;935.7804;;;;
2023/06/08 06:05:21;;;;;;;4.3;3.7;;;;;;;23.54;45.0918;935.7028;;;;
2023/06/08 06:07:50;;;;;;;4.3;3.5;;;;;;;23.52;44.30078;935.6802;;;;
2023/06/08 06:10:15;;;;;;;6;3.8;;;;;;;23.15;45.38086;935.6894;;;;
2023/06/08 06:12:42;;;;;;;4.1;3.3;;;;;;;25.1;41.80273;935.7075;;;;
2023/06/08 06:15:07;;;;;;;7.1;3.6;;;;;;;23.63;43.54785;935.6619;;;;
2023/06/08 06:17:36;;;;;;;4.4;3.6;;;;;;;24.09;41.93164;935.7031;;;;
2023/06/08 06:20:07;;;;;;;4.7;3.6;;;;;;;24.78;40.11035;935.723;;;;
2023/06/08 06:22:31;;;;;;;5.6;3.9;;;;;;;26.38;38.37207;935.6699;;;;
2023/06/08 06:24:56;;;;;;;4;3.5;;;;;;;26.25;38.19434;935.7118;;;;
2023/06/08 06:27:25;;;;;;;5.9;3.8;;;;;;;25.68;38.6543;935.6775;;;;
2023/06/08 06:29:50;;;;;;;4.5;3.6;;;;;;;25.57;39.01172;935.7266;;;;
2023/06/08 06:32:18;;;;;;;4.3;3.8;;;;;;;24.65;42.17285;935.7501;;;;
2023/06/08 06:34:46;;;;;;;4.8;3.9;;;;;;;23.82;44.59082;935.7346;;;;
2023/06/08 06:37:10;;;;;;;4.7;3.7;;;;;;;23.59;43.83789;935.601;;;;
2023/06/08 06:39:35;;;;;;;4.9;4.1;;;;;;;23.47;44.49707;935.6369;;;;
2023/06/08 06:42:02;;;;;;;5.3;3.9;;;;;;;23.61;46.58008;935.6091;;;;
2023/06/08 06:44:27;;;;;;;5.4;4.1;;;;;;;24.86;41.94531;935.6153;;;;
2023/06/08 06:46:55;;;;;;;5.7;3.8;;;;;;;25.22;41.57813;935.6344;;;;
2023/06/08 06:49:20;;;;;;;4.9;3.7;;;;;;;24.45;43.63965;935.6089;;;;
2023/06/08 06:51:46;;;;;;;5.5;4.2;;;;;;;23.51;45.0293;935.6033;;;;
2023/06/08 06:54:12;;;;;;;5.8;3.9;;;;;;;23.45;46.06934;935.6111;;;;
2023/06/08 06:56:39;;;;;;;5.4;4;;;;;;;22.91;49.45605;935.5963;;;;
2023/06/08 06:59:05;;;;;;;7.1;3.8;;;;;;;22.35;49.22949;935.671;;;;
2023/06/08 07:01:35;;;;;;;4.3;3.9;;;;;;;21.86;49.91211;935.6375;;;;
2023/06/08 07:03:57;;;;;;;5.2;4.1;;;;;;;21.52;51.04395;935.7469;;;;
2023/06/08 07:06:28;;;;;;;5.5;4.1;;;;;;;21.73;50.03906;935.7498;;;;
2023/06/08 07:08:52;;;;;;;4.6;3.5;;;;;;;22.31;48.79102;935.7194;;;;
2023/06/08 07:11:19;;;;;;;5.4;4.1;;;;;;;22.94;48.88281;935.6738;;;;
2023/06/08 07:13:44;;;;;;;3.7;3.3;;;;;;;24.54;45.23926;935.725;;;;
2023/06/08 07:16:10;;;;;;;5.2;4;;;;;;;26.05;43.34668;935.5961;;;;
2023/06/08 07:18:37;;;;;;;4.3;3.7;;;;;;;28.04;39.1084;935.6719;;;;
2023/06/08 07:21:04;;;;;;;4.5;3.5;;;;;;;25.78;39.05371;935.6735;;;;
2023/06/08 07:23:29;;;;;;;4.9;4;;;;;;;27.96;36.58203;935.6024;;;;
2023/06/08 07:25:58;;;;;;;5;4;;;;;;;29.27;35.05664;935.5963;;;;
2023/06/08 07:28:23;;;;;;;6.9;3.7;;;;;;;30.47;33.68164;935.5125;;;;
2023/06/08 07:30:49;;;;;;;7.3;3.9;;;;;;;31.63;31.92383;935.5799;;;;
2023/06/08 07:33:14;;;;;;;4.6;3.4;;;;;;;31.91;30.90137;935.6091;;;;
2023/06/08 07:35:44;;;;;;;6.3;3.9;;;;;;;31.41;31.44141;935.5605;;;;
2023/06/08 07:38:13;;;;;;;5.6;3.7;;;;;;;30.36;32.18066;935.5742;;;;
2023/06/08 07:40:37;;;;;;;4;3.6;;;;;;;31.55;31.13965;935.5684;;;;
2023/06/08 07:43:04;;;;;;;5.2;3.7;;;;;;;31.98;30.91797;935.5087;;;;
2023/06/08 07:45:30;;;;;;;4.7;3.9;;;;;;;30.32;32.84668;935.4855;;;;
2023/06/08 07:47:56;;;;;;;4.1;3.5;;;;;;;29.67;33.49121;935.5128;;;;
2023/06/08 07:50:21;;;;;;;3.7;3.4;;;;;;;30.2;32.70703;935.4761;;;;
2023/06/08 07:52:49;;;;;;;4.2;3.6;;;;;;;30.06;33.59082;935.4883;;;;
2023/06/08 07:55:14;;;;;;;3.8;3.5;;;;;;;30.86;31.92969;935.4341;;;;
2023/06/08 07:57:44;;;;;;;5.3;3.8;;;;;;;30.99;32.88379;935.4009;;;;
2023/06/08 08:00:09;;;;;;;4.1;3.6;;;;;;;31.83;32.39258;935.4235;;;;
2023/06/08 08:02:38;;;;;;;10.6;8.1;;;;;;;31.1;33.40527;935.46;;;;
2023/06/08 08:05:10;;;;;;;5.2;4.7;;;;;;;31.76;30.02832;935.4132;;;;
2023/06/08 08:07:36;;;;;;;4.4;3.6;;;;;;;31.19;32.13281;935.3958;;;;
2023/06/08 08:10:01;;;;;;;5.1;3.4;;;;;;;28.75;34.74316;935.3777;;;;
2023/06/08 08:12:30;;;;;;;4;3.3;;;;;;;30.08;34.00977;935.3406;;;;
2023/06/08 08:14:57;;;;;;;4.2;3.8;;;;;;;29.61;36.49121;935.2712;;;;
2023/06/08 08:17:22;;;;;;;4.3;3.9;;;;;;;30.85;33.73438;935.2888;;;;
2023/06/08 08:19:53;;;;;;;4.5;3.8;;;;;;;31.28;33.77832;935.2712;;;;
2023/06/08 08:22:21;;;;;;;4.6;3.9;;;;;;;31.93;30.54297;935.2682;;;;
2023/06/08 08:24:46;;;;;;;4;3.7;;;;;;;31.82;32.36914;935.337;;;;
2023/06/08 08:27:15;;;;;;;5.6;3.7;;;;;;;31.37;30.56445;935.3212;;;;
2023/06/08 08:29:41;;;;;;;3.6;3.3;;;;;;;30.76;32.4248;935.2947;;;;
2023/06/08 08:32:08;;;;;;;3.8;3.4;;;;;;;27.94;38.74316;935.3169;;;;
2023/06/08 08:34:34;;;;;;;4.1;3.7;;;;;;;27.87;36.84863;935.3115;;;;
2023/06/08 08:37:03;;;;;;;5.3;3.8;;;;;;;26.79;39.41406;935.3348;;;;
2023/06/08 08:39:28;;;;;;;4.3;3.9;;;;;;;26.15;39.54785;935.3577;;;;
2023/06/08 08:41:54;;;;;;;4.3;3.7;;;;;;;26.44;38.82617;935.3517;;;;
2023/06/08 08:44:22;;;;;;;4.8;3.7;;;;;;;25.93;39.11328;935.3762;;;;
2023/06/08 08:46:48;;;;;;;5.9;4.1;;;;;;;25.7;40.53516;935.4105;;;;
2023/06/08 08:49:13;;;;;;;5.6;4.1;;;;;;;25.07;41.15039;935.4141;;;;
2023/06/08 08:51:43;;;;;;;5;4.1;;;;;;;24.6;41.59082;935.4738;;;;
2023/06/08 08:54:07;;;;;;;4.9;4;;;;;;;24.12;45.51465;935.4244;;;;
2023/06/08 08:56:35;;;;;;;4.8;3.6;;;;;;;23.91;43.89258;935.3738;;;;
2023/06/08 08:58:56;;;;;;;4.4;3.8;;;;;;;23.49;45.20508;935.3984;;;;
2023/06/08 09:01:25;;;;;;;6.1;3.7;;;;;;;23.26;45.58105;935.4785;;;;
2023/06/08 09:03:49;;;;;;;6;4;;;;;;;23.16;46.83984;935.5207;;;;
2023/06/08 09:06:16;;;;;;;7;4.1;;;;;;;22.6;47.08496;935.563;;;;
2023/06/08 09:08:41;;;;;;;6;4.2;;;;;;;22.58;47.58789;935.5735;;;;
2023/06/08 09:11:06;;;;;;;5.5;4;;;;;;;22.46;46.34277;935.6261;;;;
2023/06/08 09:13:33;;;;;;;5;3.8;;;;;;;22.24;46.33105;935.6186;;;;
2023/06/08 09:15:59;;;;;;;5;4;;;;;;;22.1;49.11914;935.6114;;;;
2023/06/08 09:18:27;;;;;;;6.3;5;;;;;;;22.16;48.44531;935.6231;;;;
2023/06/08 09:20:52;;;;;;;4.7;4.1;;;;;;;22.17;48.9043;935.6536;;;;
2023/06/08 09:23:20;;;;;;;4.8;4.1;;;;;;;22.08;48.2373;935.6936;;;;
2023/06/08 09:25:43;;;;;;;5.4;3.9;;;;;;;21.85;48.52832;935.7708;;;;
2023/06/08 09:28:09;;;;;;;7.6;4.9;;;;;;;21.87;48.35449;935.7941;;;;
2023/06/08 09:30:37;;;;;;;4.6;4;;;;;;;22.08;49.09277;935.7966;;;;
2023/06/08 09:33:07;;;;;;;6.4;4;;;;;;;21.92;49.90723;935.7808;;;;
2023/06/08 09:35:35;;;;;;;4.8;3.9;;;;;;;22.03;50.23633;935.7762;;;;
2023/06/08 09:38:00;;;;;;;4.7;4.1;;;;;;;21.72;52.625;935.7697;;;;
2023/06/08 09:40:26;;;;;;;4.8;4.1;;;;;;;21.79;50.88965;935.7483;;;;
2023/06/08 09:42:53;;;;;;;5.8;4.1;;;;;;;21.78;50.93457;935.7218;;;;
2023/06/08 09:45:16;;;;;;;5.1;4.1;;;;;;;21.62;50.82129;935.7026;;;;
2023/06/08 09:47:44;;;;;;;6;4.4;;;;;;;21.62;54.06543;935.782;;;;
2023/06/08 09:50:10;;;;;;;5.2;4.2;;;;;;;21.67;53.24023;935.7406;;;;
2023/06/08 09:52:38;;;;;;;6.7;4.6;;;;;;;21.71;53.23438;935.8203;;;;
2023/06/08 09:55:04;;;;;;;6;4.5;;;;;;;21.79;53.70117;935.8513;;;;
2023/06/08 09:57:29;;;;;;;9.2;5.1;;;;;;;21.51;53.24512;935.8744;;;;
2023/06/08 09:59:56;;;;;;;5.2;4.2;;;;;;;21.26;52.59473;935.8798;;;;
2023/06/08 10:02:22;;;;;;;5.4;4.5;;;;;;;21.06;54.8623;935.9405;;;;
2023/06/08 10:04:47;;;;;;;5.5;4.2;;;;;;;21.11;55.99219;935.9395;;;;
2023/06/08 10:07:17;;;;;;;5.5;4.1;;;;;;;20.96;54.94531;935.9475;;;;
2023/06/08 10:09:41;;;;;;;5.3;4.4;;;;;;;20.77;55.14258;935.9717;;;;
2023/06/08 10:12:06;;;;;;;6.6;4.7;;;;;;;20.79;55.69629;936.072;;;;
2023/06/08 10:14:35;;;;;;;5.7;4.4;;;;;;;20.58;56.66113;936.1152;;;;
2023/06/08 10:17:01;;;;;;;4.6;4.2;;;;;;;20.48;57.33887;936.1127;;;;
2023/06/08 10:19:28;;;;;;;6;4.2;;;;;;;20.46;57.05566;936.1085;;;;
2023/06/08 10:21:53;;;;;;;5.3;4.7;;;;;;;20.53;56.88867;936.014;;;;
2023/06/08 10:24:21;;;;;;;5.9;5.2;;;;;;;20.52;58.12598;935.9764;;;;
2023/06/08 10:26:48;;;;;;;5.7;4.7;;;;;;;20.36;59.12109;936.0083;;;;
2023/06/08 10:29:15;;;;;;;6.6;4.1;;;;;;;19.86;59.97461;935.9272;;;;
2023/06/08 10:31:44;;;;;;;4.4;3.4;;;;;;;19.4;57.79199;935.8738;;;;
2023/06/08 10:34:09;;;;;;;4.1;3.2;;;;;;;19.18;57.78613;935.812;;;;
2023/06/08 10:36:34;;;;;;;4.4;2.8;;;;;;;19.15;55.79102;935.7378;;;;
2023/06/08 10:39:00;;;;;;;3.5;2.4;;;;;;;19.29;54.20215;935.7727;;;;
2023/06/08 10:41:25;;;;;;;3.6;2.6;;;;;;;19.34;50.4209;935.8756;;;;
2023/06/08 10:43:49;;;;;;;3.1;2.5;;;;;;;19.44;50.93359;935.9151;;;;
2023/06/08 10:46:16;;;;;;;3.6;2.5;;;;;;;19.5;53.44629;936.0369;;;;
2023/06/08 10:48:42;;;;;;;4.1;2.6;;;;;;;19.28;57.89258;936.118;;;;
2023/06/08 10:51:08;;;;;;;3.2;2.5;;;;;;;19.09;57.34473;936.1235;;;;
2023/06/08 10:53:33;;;;;;;3.7;2.9;;;;;;;19.04;56.25488;936.1362;;;;
2023/06/08 10:55:58;;;;;;;4.1;2.9;;;;;;;19.11;56.96289;936.1326;;;;
2023/06/08 10:58:25;;;;;;;5.1;3.1;;;;;;;18.98;59.12207;936.1093;;;;
2023/06/08 11:00:50;;;;;;;3.9;2.9;;;;;;;19.03;57.64941;936.1721;;;;
2023/06/08 11:03:19;;;;;;;3.7;2.7;;;;;;;19.39;54.15527;936.1875;;;;
2023/06/08 11:05:50;;;;;;;3.9;3;;;;;;;19.57;56.18262;936.1239;;;;
2023/06/08 11:08:15;;;;;;;4.8;3.1;;;;;;;19.24;57.49121;936.132;;;;
2023/06/08 11:10:42;;;;;;;3.9;2.7;;;;;;;19.16;58.80859;936.2267;;;;
2023/06/08 11:13:12;;;;;;;4.4;3.1;;;;;;;19.2;58.83789;936.2554;;;;
2023/06/08 11:15:37;;;;;;;4.3;3.2;;;;;;;19.35;58.16992;936.1459;;;;
2023/06/08 11:18:02;;;;;;;4.4;3.2;;;;;;;19.69;57.2002;936.209;;;;
2023/06/08 11:20:29;;;;;;;3.9;2.8;;;;;;;20.04;57.03613;936.1676;;;;
2023/06/08 11:22:54;;;;;;;4.1;3.3;;;;;;;20.39;57.71191;936.1433;;;;
2023/06/08 11:25:19;;;;;;;4.6;3.4;;;;;;;20.58;55.36426;936.155;;;;
2023/06/08 11:27:44;;;;;;;3.1;2.8;;;;;;;20.59;56.55664;936.1271;;;;
2023/06/08 11:30:14;;;;;;;4.9;3.8;;;;;;;20.99;54.60938;936.1255;;;;
2023/06/08 11:32:39;;;;;;;4;3.3;;;;;;;21.44;53.31836;936.0275;;;;
2023/06/08 11:35:05;;;;;;;5;3.4;;;;;;;21.92;52.0752;936.0687;;;;
2023/06/08 11:37:33;;;;;;;3.2;2.9;;;;;;;21.64;48.36523;936.0036;;;;
2023/06/08 11:39:54;;;;;;;3.5;3.1;;;;;;;22.05;50.48438;935.9614;;;;
2023/06/08 11:42:24;;;;;;;3.7;3.3;;;;;;;22.3;52.34277;935.9747;;;;
2023/06/08 11:44:49;;;;;;;4.2;3.4;;;;;;;22.5;49.99609;935.9379;;;;
2023/06/08 11:47:16;;;;;;;4.6;3.3;;;;;;;22.43;51.41895;935.8344;;;;
2023/06/08 11:49:40;;;;;;;4;3.3;;;;;;;22.81;50.70117;935.8589;;;;
2023/06/08 11:52:05;;;;;;;3.5;3.2;;;;;;;22.88;50.63867;935.7761;;;;
2023/06/08 11:54:33;;;;;;;3.9;2.8;;;;;;;22.9;48.04395;935.8095;;;;
2023/06/08 11:56:58;;;;;;;4.7;3.3;;;;;;;22.85;49.73047;935.8293;;;;
2023/06/08 11:59:25;;;;;;;4.8;3.3;;;;;;;23.08;49.75684;935.7508;;;;
2023/06/08 12:01:50;;;;;;;5;3;;;;;;;23.38;49.23633;935.7269;;;;
2023/06/08 12:04:18;;;;;;;3.8;2.8;;;;;;;23.53;48.7832;935.6261;;;;
2023/06/08 12:06:41;;;;;;;3.2;2.9;;;;;;;23.69;45.40039;935.587;;;;
2023/06/08 12:09:10;;;;;;;3.6;2.9;;;;;;;23.53;47.9248;935.5269;;;;
2023/06/08 12:11:35;;;;;;;5;3.1;;;;;;;24.01;44.51465;935.4406;;;;
2023/06/08 12:14:03;;;;;;;4;2.9;;;;;;;24.49;43.31348;935.3976;;;;
2023/06/08 12:16:27;;;;;;;3.4;3.1;;;;;;;23.63;41.9834;935.4293;;;;
2023/06/08 12:18:52;;;;;;;3.8;2.9;;;;;;;23.7;42.45996;935.4393;;;;
2023/06/08 12:21:19;;;;;;;5.4;2.9;;;;;;;23.39;41.0791;935.338;;;;
2023/06/08 12:23:46;;;;;;;3.8;3;;;;;;;23.33;40.73242;935.356;;;;
2023/06/08 12:26:11;;;;;;;3.9;3.3;;;;;;;23.25;42.62891;935.2881;;;;
2023/06/08 12:28:37;;;;;;;3.7;3;;;;;;;23.39;41.66699;935.2564;;;;
2023/06/08 12:31:02;;;;;;;3.7;3;;;;;;;24.06;40.39844;935.1579;;;;
2023/06/08 12:33:31;;;;;;;5.5;3.2;;;;;;;24.13;38.35645;935.1903;;;;
2023/06/08 12:35:56;;;;;;;4.5;3.2;;;;;;;24.13;40.86426;935.0999;;;;
2023/06/08 12:38:25;;;;;;;3.4;3;;;;;;;24.18;42.27148;935.0007;;;;
2023/06/08 12:40:57;;;;;;;3.3;3;;;;;;;23.88;40.90039;935.0327;;;;
2023/06/08 12:43:28;;;;;;;6.1;3.5;;;;;;;23.99;40.28613;934.9992;;;;
2023/06/08 12:45:58;;;;;;;5.1;3.2;;;;;;;23.83;43.35449;934.9709;;;;
2023/06/08 12:48:23;;;;;;;3.4;3.1;;;;;;;23.87;39.27441;934.8538;;;;
2023/06/08 12:50:57;;;;;;;4;3;;;;;;;23.76;40.37109;934.8308;;;;
2023/06/08 12:53:19;;;;;;;4.4;3;;;;;;;23.8;40.66992;934.8215;;;;
2023/06/08 12:55:47;;;;;;;3.5;3;;;;;;;23.53;41.18555;934.7491;;;;
2023/06/08 12:58:16;;;;;;;3.4;3.1;;;;;;;23.82;39.90625;934.8028;;;;
2023/06/08 13:00:37;;;;;;;3.5;3;;;;;;;23.91;40.12598;934.7328;;;;
2023/06/08 13:03:08;;;;;;;5;3.1;;;;;;;24.1;38.87109;934.7484;;;;
2023/06/08 13:05:39;;;;;;;4.9;3.2;;;;;;;23.82;39.54199;934.6895;;;;
2023/06/08 13:08:07;;;;;;;4.2;3.4;;;;;;;23.71;40.13086;934.6845;;;;
2023/06/08 13:10:32;;;;;;;4;3.1;;;;;;;23.73;40.08594;934.6788;;;;
2023/06/08 13:12:58;;;;;;;6.2;3.9;;;;;;;24.27;40.07617;934.6688;;;;
2023/06/08 13:15:27;;;;;;;4;3.1;;;;;;;24.73;38.97363;934.645;;;;
2023/06/08 13:17:53;;;;;;;5.1;3;;;;;;;24.74;37.7959;934.5614;;;;
2023/06/08 13:20:18;;;;;;;4.4;3.3;;;;;;;24.58;39.45508;934.5726;;;;
2023/06/08 13:22:48;;;;;;;3.4;2.8;;;;;;;24.79;37.10254;934.5689;;;;
2023/06/08 13:25:13;;;;;;;3.2;2.8;;;;;;;24.83;37.53125;934.4993;;;;
2023/06/08 13:27:43;;;;;;;3.5;2.7;;;;;;;24.57;34.90527;934.528;;;;
2023/06/08 13:30:14;;;;;;;4;2.9;;;;;;;24.19;39.39746;934.4025;;;;
2023/06/08 13:32:45;;;;;;;3.1;2.7;;;;;;;24.02;36.37988;934.3951;;;;
2023/06/08 13:35:18;;;;;;;4.1;2.9;;;;;;;24.3;35.55469;934.3325;;;;
2023/06/08 13:37:50;;;;;;;3.4;2.6;;;;;;;24.74;36.89941;934.2731;;;;
2023/06/08 13:40:13;;;;;;;3.9;2.7;;;;;;;24.71;36.80273;934.2467;;;;
2023/06/08 13:42:41;;;;;;;2.8;2.5;;;;;;;24.72;37.5459;934.2074;;;;
2023/06/08 13:45:10;;;;;;;5.7;3;;;;;;;24.49;36.98438;934.1739;;;;
2023/06/08 13:47:31;;;;;;;3.6;2.8;;;;;;;24.45;36.07324;934.1401;;;;
2023/06/08 13:49:59;;;;;;;3.8;2.8;;;;;;;24.91;37.53809;934.1074;;;;
2023/06/08 13:52:25;;;;;;;3.4;2.9;;;;;;;24.74;36.29785;934.0369;;;;
2023/06/08 13:54:52;;;;;;;3.5;3.1;;;;;;;25.07;36.92676;933.9611;;;;
2023/06/08 13:57:16;;;;;;;3.5;2.9;;;;;;;25.45;35.87207;933.913;;;;
2023/06/08 13:59:45;;;;;;;3.2;2.8;;;;;;;25.54;34.44824;933.822;;;;
2023/06/08 14:02:11;;;;;;;3.3;2.6;;;;;;;25.59;33.73145;933.7994;;;;
2023/06/08 14:04:37;;;;;;;3.7;3;;;;;;;25.7;34.02441;933.7415;;;;
2023/06/08 14:07:02;;;;;;;3.1;2.8;;;;;;;25.84;33.73926;933.7372;;;;
2023/06/08 14:09:31;;;;;;;3.3;2.6;;;;;;;25.62;34.12402;933.6884;;;;
2023/06/08 14:11:56;;;;;;;4.9;2.8;;;;;;;25.76;35.43457;933.6127;;;;
2023/06/08 14:14:23;;;;;;;3.7;3.1;;;;;;;25.73;34.16797;933.6461;;;;
2023/06/08 14:16:49;;;;;;;5.7;3;;;;;;;25.89;36.0127;933.5793;;;;
2023/06/08 14:19:14;;;;;;;3.4;2.8;;;;;;;25.92;35.81445;933.6044;;;;
2023/06/08 14:21:38;;;;;;;3.1;2.6;;;;;;;25.93;34.05273;933.6031;;;;
2023/06/08 14:24:05;;;;;;;2.9;2.6;;;;;;;25.68;34.33008;933.5648;;;;
2023/06/08 14:26:30;;;;;;;3.3;3;;;;;;;25.59;34.23926;933.6006;;;;
2023/06/08 14:28:59;;;;;;;3.4;3;;;;;;;25.64;34.89355;933.4412;;;;